HTMW

Details ICAO HTMW (MWZ)
Name MWANZA
Region Tanzania
Timezone Africa/Dar_es_Salaam (UTC+3.0)
Plans Departing 13
Arriving 24
Stats Elevation 3,763 ft / 1,147 m (AMSL)
Location -2.444485° 32.932665°
Runways 1
Magnetic Variation 0.891° E
Sunrise 2018-05-23 03:46:33 UTC / 2018-05-23 06:46:33 Local
Sunset 2018-05-23 15:46:20 UTC / 2018-05-23 18:46:20 Local
Advertisement - Login to hide

Runways

ID Width Length Bearing (true) Bearing (mag) Surface Threshold Offset Overrun Length
12 148 ft / 45 m 10,223 ft / 3,116 m 116.54° 115.65° Asphalt 300 ft / 91 m 615 ft / 187 m
30 148 ft / 45 m 10,223 ft / 3,116 m 296.54° 295.65° Asphalt 0 ft / 0 m 0 ft / 0 m

Map

Weather


0- 5 10 15 20 25 30 35+ Temperature / ° C

Clouds and Precipitation
Forecast for 2018-05-23 12:00 UTC. Updated 6 hours ago

Ground ~20,000 ft ~40,000 ft Winds

METAR

Not found

TAF

HTMW 231100Z 2312/2412 33010KT 9999 SCT026 FEW027CB SCT120 BECMG 2318/2320 00000KT BECMG 2404/2406 12010KT

Frequencies

Tower 123.10 MHz TWR
Approach 123.10 MHz APP
Warning: Do not use this data for real-world aviation or navigation. No guarantee of current accuracy is given.